createdAt,value
2019-01-21T00:02:04.505Z,-0.60
2019-01-21T00:04:36.520Z,-0.50
2019-01-21T00:07:09.102Z,-0.50
2019-01-21T00:09:40.610Z,-0.60
2019-01-21T00:12:11.990Z,-0.60
2019-01-21T00:14:43.824Z,-0.50
2019-01-21T00:17:28.244Z,-0.50
2019-01-21T00:19:59.685Z,-0.30
2019-01-21T00:22:33.580Z,-0.30
2019-01-21T00:25:05.320Z,-0.30
2019-01-21T00:27:37.069Z,-0.30
2019-01-21T00:30:09.803Z,-0.30
2019-01-21T00:32:41.697Z,-0.20
2019-01-21T00:35:13.203Z,-0.20
2019-01-21T00:37:44.941Z,-0.20
2019-01-21T00:40:16.904Z,-0.20
2019-01-21T00:42:48.279Z,-0.10
2019-01-21T00:45:19.991Z,0.00
2019-01-21T00:47:57.677Z,0.00
2019-01-21T00:50:30.109Z,0.00
2019-01-21T00:53:03.817Z,0.10
2019-01-21T00:55:35.812Z,0.10
2019-01-21T00:58:09.142Z,0.20
2019-01-21T01:00:42.108Z,0.10
2019-01-21T01:03:13.952Z,0.10
2019-01-21T01:05:46.379Z,0.10
2019-01-21T01:08:17.984Z,0.10
2019-01-21T01:10:49.593Z,0.10
2019-01-21T01:13:21.767Z,0.20
2019-01-21T01:15:53.599Z,0.30
2019-01-21T01:18:24.980Z,0.30
2019-01-21T01:20:56.673Z,0.30
2019-01-21T01:23:28.299Z,0.30
2019-01-21T01:25:59.880Z,0.30
2019-01-21T01:28:31.618Z,0.30
2019-01-21T01:31:03.697Z,0.30
2019-01-21T01:33:35.078Z,0.20
2019-01-21T01:36:07.054Z,0.20
2019-01-21T01:38:38.420Z,0.10
2019-01-21T01:41:12.836Z,0.10
2019-01-21T01:43:44.823Z,0.00
2019-01-21T01:46:26.351Z,0.00
2019-01-21T01:48:57.908Z,0.00
2019-01-21T01:51:29.485Z,0.00
2019-01-21T01:54:01.171Z,0.10
2019-01-21T01:56:33.365Z,0.20
2019-01-21T01:59:05.307Z,0.20
2019-01-21T02:01:37.261Z,0.20
2019-01-21T02:04:09.249Z,0.20
2019-01-21T02:06:41.959Z,0.20
2019-01-21T02:09:13.805Z,0.20
2019-01-21T02:11:45.854Z,0.30
2019-01-21T02:14:18.844Z,0.30
2019-01-21T02:16:51.090Z,0.40
2019-01-21T02:19:24.936Z,0.40
2019-01-21T02:21:58.740Z,0.40
2019-01-21T02:24:35.390Z,0.40
2019-01-21T02:27:12.353Z,0.40
2019-01-21T02:30:20.633Z,0.50
2019-01-21T02:33:26.027Z,0.50
2019-01-21T02:36:35.655Z,0.60
2019-01-21T02:39:48.117Z,0.60
2019-01-21T02:42:57.736Z,0.60
2019-01-21T02:45:41.912Z,0.60
2019-01-21T02:48:25.865Z,0.50
2019-01-21T02:51:23.985Z,0.40
2019-01-21T02:54:17.304Z,0.40
2019-01-21T02:57:15.164Z,0.40
2019-01-21T03:00:14.146Z,0.40
2019-01-21T03:03:23.183Z,0.50
2019-01-21T03:06:16.751Z,0.50
2019-01-21T03:09:32.281Z,0.60
2019-01-21T03:12:56.733Z,0.60
2019-01-21T03:15:40.352Z,0.60
2019-01-21T03:18:46.203Z,0.70
2019-01-21T03:22:02.403Z,0.70
2019-01-21T03:25:16.951Z,0.70
2019-01-21T03:28:14.452Z,0.80
2019-01-21T03:31:41.060Z,0.90
2019-01-21T03:34:43.588Z,1.00
2019-01-21T03:37:40.723Z,1.00
2019-01-21T03:40:39.057Z,1.00
2019-01-21T03:43:48.594Z,1.10
2019-01-21T03:46:57.613Z,1.10
2019-01-21T03:49:45.743Z,1.10
2019-01-21T03:52:47.922Z,1.10
2019-01-21T03:55:20.694Z,1.10
2019-01-21T03:58:28.608Z,1.10
2019-01-21T04:01:49.298Z,1.20
2019-01-21T04:05:00.709Z,1.20
2019-01-21T04:08:16.630Z,1.20
2019-01-21T04:11:18.159Z,1.20
2019-01-21T04:14:38.839Z,1.30
2019-01-21T04:17:44.147Z,1.30
2019-01-21T04:21:08.013Z,1.20
2019-01-21T04:23:53.540Z,1.30
2019-01-21T04:26:49.447Z,1.40
2019-01-21T04:29:59.418Z,1.30
2019-01-21T04:33:09.161Z,1.40
2019-01-21T04:36:36.669Z,1.40
2019-01-21T04:39:33.478Z,1.40
2019-01-21T04:42:33.453Z,1.40
2019-01-21T04:45:27.478Z,1.50
2019-01-21T04:48:17.962Z,1.50
2019-01-21T04:51:04.664Z,1.50
2019-01-21T04:54:08.787Z,1.50
2019-01-21T04:57:31.643Z,1.50
2019-01-21T05:00:44.674Z,1.60
2019-01-21T05:03:44.891Z,1.60
2019-01-21T05:07:02.830Z,1.60
2019-01-21T05:10:18.495Z,1.50
2019-01-21T05:13:22.234Z,1.50
2019-01-21T05:16:36.183Z,1.60
2019-01-21T05:19:41.135Z,1.60
2019-01-21T05:22:34.702Z,1.60
2019-01-21T05:25:53.737Z,1.60
2019-01-21T05:29:18.587Z,1.50
2019-01-21T05:32:17.493Z,1.50
2019-01-21T05:35:45.656Z,1.50
2019-01-21T05:39:06.691Z,1.50
2019-01-21T05:42:02.832Z,1.50
2019-01-21T05:45:15.895Z,1.40
2019-01-21T05:48:20.763Z,1.40
2019-01-21T05:51:40.004Z,1.40
2019-01-21T05:54:52.291Z,1.40
2019-01-21T05:58:04.514Z,1.40
2019-01-21T06:01:07.578Z,1.40
2019-01-21T06:04:06.096Z,1.40
2019-01-21T06:07:05.326Z,1.40
2019-01-21T06:10:01.121Z,1.30
2019-01-21T06:13:01.789Z,1.30
2019-01-21T06:15:49.735Z,1.30
2019-01-21T06:19:01.531Z,1.20
2019-01-21T06:22:44.892Z,1.20
2019-01-21T06:26:06.287Z,1.20
2019-01-21T06:29:39.823Z,1.10
2019-01-21T06:33:04.432Z,1.10
2019-01-21T06:36:11.581Z,1.10
2019-01-21T06:39:27.496Z,1.10
2019-01-21T06:42:48.813Z,1.10
2019-01-21T06:46:16.541Z,1.20
2019-01-21T06:49:37.126Z,1.20
2019-01-21T06:52:52.227Z,1.20
2019-01-21T06:55:57.191Z,1.20
2019-01-21T06:59:04.993Z,1.20
2019-01-21T07:01:51.808Z,1.20
2019-01-21T07:05:01.979Z,1.10
2019-01-21T07:08:18.257Z,1.10
2019-01-21T07:11:18.234Z,1.10
2019-01-21T07:14:17.168Z,1.10
2019-01-21T07:17:18.449Z,1.10
2019-01-21T07:20:15.309Z,1.10
2019-01-21T07:23:20.730Z,1.20
2019-01-21T07:26:30.878Z,1.10
2019-01-21T07:29:34.890Z,1.20
2019-01-21T07:32:31.808Z,1.20
2019-01-21T07:36:05.959Z,1.10
2019-01-21T07:39:21.751Z,1.10
2019-01-21T07:42:23.195Z,1.10
2019-01-21T07:45:21.604Z,1.10
2019-01-21T07:48:14.364Z,1.00
2019-01-21T07:51:12.303Z,1.10
2019-01-21T07:54:34.133Z,1.10
2019-01-21T07:57:33.898Z,1.10
2019-01-21T08:00:55.452Z,1.20
2019-01-21T08:04:22.753Z,1.20
2019-01-21T08:07:25.914Z,1.20
2019-01-21T08:10:41.670Z,1.30
2019-01-21T08:13:45.783Z,1.30
2019-01-21T08:17:02.655Z,1.40
2019-01-21T08:20:15.341Z,1.50
2019-01-21T08:23:23.199Z,1.70
2019-01-21T08:26:22.901Z,1.50
2019-01-21T08:29:25.779Z,1.60
2019-01-21T08:32:17.397Z,1.60
2019-01-21T08:35:32.515Z,1.60
2019-01-21T08:38:43.878Z,1.50
2019-01-21T08:41:52.144Z,1.50
2019-01-21T08:45:11.149Z,1.50
2019-01-21T08:48:07.636Z,1.50
2019-01-21T08:51:33.078Z,1.30
2019-01-21T08:54:24.313Z,1.40
2019-01-21T08:57:28.435Z,1.30
2019-01-21T09:00:59.222Z,1.30
2019-01-21T09:04:22.749Z,1.30
2019-01-21T09:07:44.729Z,1.30
2019-01-21T09:10:40.954Z,1.30
2019-01-21T09:13:43.589Z,1.20
2019-01-21T09:16:36.389Z,1.20
2019-01-21T09:19:19.819Z,1.10
2019-01-21T09:22:20.523Z,1.10
2019-01-21T09:25:39.189Z,1.20
2019-01-21T09:28:39.453Z,1.20
2019-01-21T09:31:55.076Z,1.20
2019-01-21T09:35:22.943Z,1.30
2019-01-21T09:42:00.554Z,1.20
2019-01-21T09:44:58.483Z,1.30
2019-01-21T09:47:29.221Z,1.20
2019-01-21T09:50:00.891Z,1.30
2019-01-21T09:52:32.611Z,1.30
2019-01-21T09:55:05.532Z,1.30
2019-01-21T09:57:38.607Z,1.30
2019-01-21T10:00:16.152Z,1.20
2019-01-21T10:02:50.062Z,1.20
2019-01-21T10:05:22.523Z,1.10
2019-01-21T10:08:06.126Z,1.00
2019-01-21T10:11:15.404Z,1.10
2019-01-21T10:14:27.144Z,1.10
2019-01-21T10:17:33.524Z,1.10
2019-01-21T10:20:41.433Z,1.20
2019-01-21T10:23:28.279Z,1.40
2019-01-21T10:26:25.133Z,1.50
2019-01-21T10:29:16.713Z,1.40
2019-01-21T10:32:24.472Z,1.50
2019-01-21T10:35:23.686Z,1.40
2019-01-21T10:38:55.123Z,1.50
2019-01-21T10:41:45.079Z,1.50
2019-01-21T10:44:43.730Z,1.40
2019-01-21T10:47:39.914Z,1.60
2019-01-21T10:50:50.608Z,1.70
2019-01-21T10:53:59.560Z,1.40
2019-01-21T10:56:50.107Z,1.50
2019-01-21T10:59:59.822Z,1.40
2019-01-21T11:03:03.394Z,1.20
2019-01-21T11:05:52.501Z,1.30
2019-01-21T11:08:50.025Z,1.20
2019-01-21T11:12:18.161Z,1.20
2019-01-21T11:14:58.520Z,1.40
2019-01-21T11:18:04.991Z,1.40
2019-01-21T11:21:17.476Z,1.60
2019-01-21T11:24:44.830Z,1.50
2019-01-21T11:27:50.017Z,1.70
2019-01-21T11:30:46.424Z,1.70
2019-01-21T11:33:59.548Z,1.70
2019-01-21T11:37:14.756Z,1.80
2019-01-21T11:40:40.771Z,1.60
2019-01-21T11:43:45.100Z,1.30
2019-01-21T11:46:50.529Z,1.50
2019-01-21T11:49:40.209Z,1.40
2019-01-21T11:52:53.832Z,1.50
2019-01-21T11:56:07.128Z,1.60
2019-01-21T11:59:10.227Z,1.50
2019-01-21T12:02:04.334Z,1.50
2019-01-21T12:05:25.633Z,1.40
2019-01-21T12:08:36.484Z,1.40
2019-01-21T12:11:37.274Z,1.60
2019-01-21T12:14:43.579Z,1.50
2019-01-21T12:17:50.416Z,1.40
2019-01-21T12:21:13.904Z,1.70
2019-01-21T12:24:35.713Z,1.70
2019-01-21T12:28:18.411Z,1.80
2019-01-21T12:31:29.837Z,2.00
2019-01-21T12:34:28.342Z,2.10
2019-01-21T12:37:27.696Z,2.10
2019-01-21T12:40:31.932Z,2.10
2019-01-21T12:43:51.262Z,2.00
2019-01-21T12:46:41.479Z,1.70
2019-01-21T12:53:02.694Z,1.70
2019-01-21T12:56:29.079Z,1.50
2019-01-21T23:07:45.697Z,-0.10
2019-01-21T23:10:17.127Z,0.00
2019-01-21T23:12:48.703Z,-0.10
2019-01-21T23:15:20.696Z,0.00
2019-01-21T23:17:52.354Z,-0.10
2019-01-21T23:20:23.619Z,0.00
2019-01-21T23:22:55.042Z,-0.10
2019-01-21T23:25:26.885Z,-0.20
2019-01-21T23:27:58.697Z,-0.20
2019-01-21T23:30:30.373Z,-0.20
2019-01-21T23:33:01.832Z,-0.30
2019-01-21T23:35:34.266Z,-0.20
2019-01-21T23:38:05.997Z,-0.30
2019-01-21T23:40:37.663Z,-0.20
2019-01-21T23:43:09.344Z,-0.10
2019-01-21T23:45:40.857Z,0.10
2019-01-21T23:48:12.659Z,0.00
2019-01-21T23:50:45.638Z,-0.10
2019-01-21T23:53:17.188Z,-0.10
2019-01-21T23:55:48.804Z,-0.20
2019-01-21T23:58:20.754Z,-0.10
